Terminal Aerodrome Forecast
Issued by NWS Shreveport, LA

Home | Current Version | Previous Version | Text Only | Print | Product List | Glossary On
Versions: 1 2 3 4 5 6 7 8 9 10 11 12 13 14 15 16 17 18 19 20 21 22 23 24
000
FTUS44 KSHV 210807 AAA
TAFLFK
TAF AMD
KLFK 210807Z 2108/2206 17008KT P6SM BKN012 OVC030
      TEMPO 2108/2112 SCT015 BKN050
     FM211200 36010KT 3SM TSRA OVC007CB
     FM211800 03008KT 3SM TSRA OVC007CB
     FM220300 01005KT 3SM -TSRA OVC004CB=

USA.gov is the U.S. government's official web portal to all federal, state and local government web resources and services.